createdAt,value
2023-01-19T00:01:37.045Z,98737.25
2023-01-19T00:04:06.825Z,98739.19
2023-01-19T00:06:37.610Z,98741.19
2023-01-19T00:09:07.897Z,98739.78
2023-01-19T00:11:39.906Z,98724.56
2023-01-19T00:14:08.506Z,98725.66
2023-01-19T00:16:40.569Z,98729.38
2023-01-19T00:19:12.860Z,98719.38
2023-01-19T00:21:45.369Z,98728.31
2023-01-19T00:24:14.836Z,98731.91
2023-01-19T00:26:44.695Z,98733.03
2023-01-19T00:29:15.236Z,98734.94
2023-01-19T00:31:46.916Z,98736.00
2023-01-19T00:34:15.538Z,98744.63
2023-01-19T00:36:49.607Z,98742.09
2023-01-19T00:39:18.188Z,98743.81
2023-01-19T00:42:05.494Z,98736.88
2023-01-19T00:44:35.422Z,98735.25
2023-01-19T00:47:05.785Z,98730.97
2023-01-19T00:49:37.051Z,98731.03
2023-01-19T00:52:06.316Z,98730.22
2023-01-19T00:54:34.919Z,98729.41
2023-01-19T00:57:06.918Z,98738.97
2023-01-19T00:59:35.543Z,98742.50
2023-01-19T01:02:04.193Z,98752.09
2023-01-19T01:04:33.191Z,98759.06
2023-01-19T01:07:02.556Z,98760.84
2023-01-19T01:09:31.808Z,98769.53
2023-01-19T01:12:00.695Z,98763.59
2023-01-19T01:14:30.949Z,98761.06
2023-01-19T01:17:02.054Z,98761.09
2023-01-19T01:19:30.651Z,98760.34
2023-01-19T01:21:59.191Z,98756.25
2023-01-19T01:24:27.816Z,98767.50
2023-01-19T01:26:56.553Z,98758.91
2023-01-19T01:29:25.161Z,98760.63
2023-01-19T01:31:55.789Z,98754.69
2023-01-19T01:34:24.191Z,98747.91
2023-01-19T01:36:52.729Z,98739.34
2023-01-19T01:39:22.187Z,98742.03
2023-01-19T01:41:50.805Z,98740.41
2023-01-19T01:44:50.970Z,98731.03
2023-01-19T01:47:27.115Z,98729.28
2023-01-19T01:50:06.756Z,98725.03
2023-01-19T01:52:39.038Z,98722.50
2023-01-19T01:55:09.782Z,98722.63
2023-01-19T01:57:42.262Z,98720.09
2023-01-19T02:00:15.801Z,98717.56
2023-01-19T02:02:51.438Z,98713.34
2023-01-19T02:05:24.430Z,98705.63
2023-01-19T02:08:16.191Z,98704.88
2023-01-19T02:11:03.035Z,98704.88
2023-01-19T02:13:32.649Z,98711.69
2023-01-19T02:16:04.201Z,98703.97
2023-01-19T02:18:35.466Z,98705.63
2023-01-19T02:21:11.405Z,98696.09
2023-01-19T02:23:44.210Z,98697.78
2023-01-19T02:26:17.243Z,98699.41
2023-01-19T02:28:50.640Z,98698.50
2023-01-19T02:31:19.975Z,98706.16
2023-01-19T02:33:48.528Z,98706.16
2023-01-19T02:36:19.242Z,98707.84
2023-01-19T02:38:50.935Z,98711.16
2023-01-19T02:41:27.893Z,98707.50
2023-01-19T02:44:02.156Z,98716.81
2023-01-19T02:46:31.245Z,98722.00
2023-01-19T02:49:01.749Z,98727.13
2023-01-19T02:51:31.101Z,98721.22
2023-01-19T02:54:34.891Z,98712.00
2023-01-19T02:57:28.813Z,98721.66
2023-01-19T03:00:08.170Z,98719.19
2023-01-19T03:02:51.217Z,98720.09
2023-01-19T03:05:35.254Z,98725.25
2023-01-19T03:08:11.454Z,98730.34
2023-01-19T03:10:49.215Z,98731.97
2023-01-19T03:13:28.544Z,98724.06
2023-01-19T03:16:01.686Z,98728.25
2023-01-19T03:18:34.142Z,98723.91
2023-01-19T03:21:06.913Z,98723.91
2023-01-19T03:23:39.758Z,98728.25
2023-01-19T03:26:14.891Z,98727.38
2023-01-19T03:28:47.364Z,98730.00
2023-01-19T03:31:18.920Z,98739.53
2023-01-19T03:33:49.883Z,98751.56
2023-01-19T03:36:23.299Z,98754.19
2023-01-19T03:38:53.391Z,98747.28
2023-01-19T03:41:25.581Z,98757.50
2023-01-19T03:43:57.898Z,98762.56
2023-01-19T03:46:27.371Z,98762.56
2023-01-19T03:48:56.251Z,98756.47
2023-01-19T03:51:25.145Z,98760.72
2023-01-19T03:53:53.741Z,98764.00
2023-01-19T03:56:23.935Z,98774.41
2023-01-19T03:58:52.987Z,98777.81
2023-01-19T04:01:23.505Z,98776.06
2023-01-19T04:03:52.115Z,98775.91
2023-01-19T04:06:21.756Z,98786.16
2023-01-19T04:08:51.260Z,98789.63
2023-01-19T04:11:20.862Z,98788.78
2023-01-19T04:13:50.366Z,98784.50
2023-01-19T04:16:21.331Z,98787.09
2023-01-19T04:18:53.835Z,98792.28
2023-01-19T04:21:22.407Z,98810.38
2023-01-19T04:23:51.171Z,98811.25
2023-01-19T04:26:22.126Z,98800.06
2023-01-19T04:28:51.000Z,98801.88
2023-01-19T04:31:20.643Z,98816.66
2023-01-19T04:33:49.203Z,98818.41
2023-01-19T04:36:19.082Z,98816.69
2023-01-19T04:38:48.814Z,98812.31
2023-01-19T04:41:17.296Z,98807.25
2023-01-19T04:43:47.730Z,98820.09
2023-01-19T04:46:16.240Z,98820.88
2023-01-19T04:48:44.750Z,98832.00
2023-01-19T04:51:13.210Z,98828.59
2023-01-19T04:53:45.308Z,98829.41
2023-01-19T04:56:13.839Z,98830.25
2023-01-19T04:58:42.517Z,98833.63
2023-01-19T05:01:11.365Z,98839.66
2023-01-19T05:03:40.383Z,98836.25
2023-01-19T05:06:09.040Z,98833.69
2023-01-19T05:08:37.703Z,98835.41
2023-01-19T05:11:08.047Z,98834.41
2023-01-19T05:13:36.930Z,98841.34
2023-01-19T05:16:06.430Z,98849.88
2023-01-19T05:18:38.141Z,98843.03
2023-01-19T05:21:06.955Z,98837.81
2023-01-19T05:23:36.190Z,98832.66
2023-01-19T05:26:05.134Z,98828.41
2023-01-19T05:28:35.745Z,98837.00
2023-01-19T05:31:04.408Z,98836.13
2023-01-19T05:33:33.418Z,98841.19
2023-01-19T05:36:04.430Z,98835.94
2023-01-19T05:38:36.287Z,98835.19
2023-01-19T05:41:07.703Z,98834.34
2023-01-19T05:43:38.094Z,98841.19
2023-01-19T05:46:07.052Z,98854.06
2023-01-19T05:48:36.379Z,98846.31
2023-01-19T05:51:06.045Z,98843.72
2023-01-19T05:53:34.747Z,98865.13
2023-01-19T05:56:03.850Z,98866.00
2023-01-19T05:58:33.886Z,98879.63
2023-01-19T06:01:06.185Z,98891.59
2023-01-19T06:03:39.718Z,98891.56
2023-01-19T06:06:08.805Z,98901.88
2023-01-19T06:08:37.427Z,98893.25
2023-01-19T06:11:07.445Z,98900.22
2023-01-19T06:13:41.328Z,98902.81
2023-01-19T06:16:20.296Z,98906.31
2023-01-19T06:18:50.884Z,98898.59
2023-01-19T06:21:20.191Z,98897.69
2023-01-19T06:23:49.143Z,98898.56
2023-01-19T06:26:20.317Z,98894.19
2023-01-19T06:28:49.035Z,98900.09
2023-01-19T06:31:22.676Z,98900.88
2023-01-19T06:33:54.713Z,98890.34
2023-01-19T06:36:23.636Z,98895.38
2023-01-19T06:38:52.238Z,98884.22
2023-01-19T06:41:21.030Z,98886.00
2023-01-19T06:43:50.108Z,98881.72
2023-01-19T06:46:19.342Z,98884.34
2023-01-19T06:48:52.310Z,98877.41
2023-01-19T06:51:21.039Z,98871.28
2023-01-19T06:53:49.878Z,98878.00
2023-01-19T06:56:19.711Z,98888.28
2023-01-19T06:58:53.402Z,98895.16
2023-01-19T07:01:22.468Z,98909.78
2023-01-19T07:03:53.412Z,98907.19
2023-01-19T07:06:23.178Z,98913.28
2023-01-19T07:08:51.825Z,98903.84
2023-01-19T07:11:26.219Z,98891.84
2023-01-19T07:14:00.853Z,98895.31
2023-01-19T07:16:29.917Z,98891.94
2023-01-19T07:19:00.171Z,98888.38
2023-01-19T07:21:31.881Z,98889.22
2023-01-19T07:24:00.415Z,98894.41
2023-01-19T07:26:32.567Z,98895.25
2023-01-19T07:29:01.973Z,98906.34
2023-01-19T07:31:30.795Z,98909.66
2023-01-19T07:34:01.822Z,98928.50
2023-01-19T07:36:30.732Z,98930.13
2023-01-19T07:39:01.578Z,98929.13
2023-01-19T07:41:32.794Z,98918.72
2023-01-19T07:44:01.453Z,98914.31
2023-01-19T07:46:30.200Z,98921.09
2023-01-19T07:48:58.967Z,98916.09
2023-01-19T07:51:29.488Z,98925.44
2023-01-19T07:53:58.951Z,98923.69
2023-01-19T07:56:32.635Z,98932.31
2023-01-19T07:59:01.736Z,98933.03
2023-01-19T08:01:31.725Z,98932.00
2023-01-19T08:04:01.108Z,98920.78
2023-01-19T08:06:36.461Z,98934.53
2023-01-19T08:09:07.208Z,98953.56
2023-01-19T08:11:36.089Z,98957.78
2023-01-19T08:14:07.752Z,98967.19
2023-01-19T08:16:37.197Z,98967.09
2023-01-19T08:19:06.488Z,98958.47
2023-01-19T08:21:38.719Z,98959.22
2023-01-19T08:24:10.558Z,98966.94
2023-01-19T08:26:39.514Z,98960.06
2023-01-19T08:29:08.545Z,98961.78
2023-01-19T08:31:38.187Z,98967.78
2023-01-19T08:34:09.846Z,98975.41
2023-01-19T08:36:42.751Z,98971.91
2023-01-19T08:39:14.385Z,98971.81
2023-01-19T08:41:58.371Z,98964.81
2023-01-19T08:44:32.542Z,98964.88
2023-01-19T08:47:05.136Z,98972.53
2023-01-19T08:49:36.820Z,98962.16
2023-01-19T08:52:17.539Z,98958.50
2023-01-19T08:55:03.970Z,98967.06
2023-01-19T08:57:42.442Z,98944.69
2023-01-19T09:00:12.974Z,98962.69
2023-01-19T09:02:45.070Z,98979.09
2023-01-19T09:05:24.213Z,98970.44
2023-01-19T09:07:59.430Z,98971.22
2023-01-19T09:10:36.646Z,98960.69
2023-01-19T09:13:05.735Z,98994.06
2023-01-19T09:15:43.685Z,99001.88
2023-01-19T09:18:18.671Z,98986.25
2023-01-19T09:20:49.650Z,98981.56
2023-01-19T09:23:31.846Z,98994.41
2023-01-19T09:26:02.321Z,99003.09
2023-01-19T09:28:31.832Z,98997.09
2023-01-19T09:31:01.020Z,98995.34
2023-01-19T09:33:32.707Z,99002.09
2023-01-19T09:36:05.901Z,99003.88
2023-01-19T09:38:38.912Z,98989.25
2023-01-19T09:41:18.524Z,98963.34
2023-01-19T09:43:52.460Z,98965.69
2023-01-19T09:46:24.729Z,98971.69
2023-01-19T09:48:55.169Z,98954.41
2023-01-19T09:51:27.280Z,98945.66
2023-01-19T09:54:06.640Z,98949.75
2023-01-19T09:56:35.839Z,98948.00
2023-01-19T09:59:21.579Z,98941.00
2023-01-19T10:02:07.963Z,98935.84
2023-01-19T10:04:41.589Z,98942.72
2023-01-19T10:07:22.840Z,98932.16
2023-01-19T10:10:14.259Z,98932.00
2023-01-19T10:12:56.653Z,98936.31
2023-01-19T10:15:34.530Z,98934.59
2023-01-19T10:18:13.474Z,98933.63
2023-01-19T10:20:49.592Z,98919.69
2023-01-19T10:23:40.924Z,98950.63
2023-01-19T10:26:18.659Z,98949.94
2023-01-19T10:28:50.016Z,98947.28
2023-01-19T10:31:22.511Z,98940.41
2023-01-19T10:33:52.808Z,98938.72
2023-01-19T10:36:23.523Z,98940.47
2023-01-19T10:38:52.536Z,98939.72
2023-01-19T10:41:28.740Z,98927.69
2023-01-19T10:44:04.650Z,98924.19
2023-01-19T10:46:39.586Z,98933.63
2023-01-19T10:49:08.988Z,98919.81
2023-01-19T10:51:49.287Z,98907.88
2023-01-19T10:54:18.874Z,98910.47
2023-01-19T10:56:53.088Z,98916.41
2023-01-19T10:59:36.913Z,98912.06
2023-01-19T11:02:22.035Z,98911.97
2023-01-19T11:04:55.703Z,98904.38
2023-01-19T11:07:28.544Z,98916.31
2023-01-19T11:10:14.416Z,98917.16
2023-01-19T11:12:47.407Z,98917.94
2023-01-19T11:15:21.953Z,98905.84
2023-01-19T11:17:52.222Z,98904.03
2023-01-19T11:20:23.449Z,98902.19
2023-01-19T11:23:06.670Z,98902.09
2023-01-19T11:25:38.096Z,98892.38
2023-01-19T11:28:17.829Z,98906.06
2023-01-19T11:30:56.051Z,98902.50
2023-01-19T11:33:27.427Z,98898.88
2023-01-19T11:36:04.847Z,98903.03
2023-01-19T11:38:41.363Z,98898.66
2023-01-19T11:41:20.317Z,98895.16
2023-01-19T11:43:54.300Z,98894.41
2023-01-19T11:46:25.764Z,98885.78
2023-01-19T11:49:02.177Z,98884.09
2023-01-19T11:51:42.184Z,98881.47
2023-01-19T11:54:23.866Z,98880.59
2023-01-19T11:56:58.589Z,98885.91
2023-01-19T11:59:28.834Z,98883.31
2023-01-19T12:02:01.813Z,98864.47
2023-01-19T12:04:34.724Z,98866.97
2023-01-19T12:07:09.032Z,98868.66
2023-01-19T12:09:43.163Z,98858.28
2023-01-19T12:12:27.187Z,98859.16
2023-01-19T12:15:03.335Z,98860.97
2023-01-19T12:17:35.821Z,98871.38
2023-01-19T12:20:14.763Z,98872.34
2023-01-19T12:22:50.877Z,98879.25
2023-01-19T12:25:23.637Z,98881.59
2023-01-19T12:27:53.556Z,98877.28
2023-01-19T12:30:27.619Z,98878.19
2023-01-19T12:33:24.249Z,98876.44
2023-01-19T12:35:58.298Z,98870.38
2023-01-19T12:38:41.634Z,98869.50
2023-01-19T12:41:30.139Z,98866.97
2023-01-19T12:44:24.801Z,98867.97
2023-01-19T12:47:03.608Z,98872.25
2023-01-19T12:49:36.740Z,98867.19
2023-01-19T12:52:36.389Z,98859.38
2023-01-19T12:55:19.642Z,98856.63
2023-01-19T12:57:57.153Z,98865.38
2023-01-19T13:00:38.102Z,98866.34
2023-01-19T13:03:59.632Z,98860.38
2023-01-19T13:07:06.021Z,98856.84
2023-01-19T13:09:38.451Z,98863.66
2023-01-19T13:12:29.084Z,98879.19
2023-01-19T13:15:30.348Z,98888.59
2023-01-19T13:17:59.733Z,98876.59
2023-01-19T13:20:36.413Z,98871.38
2023-01-19T13:23:23.219Z,98872.25
2023-01-19T13:26:04.504Z,98885.16
2023-01-19T13:28:43.831Z,98891.97
2023-01-19T13:31:15.132Z,98881.69
2023-01-19T13:33:50.233Z,98885.06
2023-01-19T13:36:26.813Z,98876.44
2023-01-19T13:38:58.216Z,98868.78
2023-01-19T13:41:30.762Z,98868.84
2023-01-19T13:44:03.294Z,98877.56
2023-01-19T13:46:35.601Z,98883.63
2023-01-19T13:49:15.298Z,98880.16
2023-01-19T13:51:46.572Z,98878.38
2023-01-19T13:54:18.336Z,98876.75
2023-01-19T13:56:50.762Z,98881.19
2023-01-19T13:59:19.313Z,98885.72
2023-01-19T14:01:49.413Z,98888.44
2023-01-19T14:04:36.467Z,98885.94
2023-01-19T14:07:26.476Z,98885.13
2023-01-19T14:10:06.332Z,98882.50
2023-01-19T14:12:43.543Z,98877.31
2023-01-19T14:15:17.588Z,98871.38
2023-01-19T14:17:49.952Z,98873.94
2023-01-19T14:20:37.081Z,98879.22
2023-01-19T14:23:08.886Z,98878.41
2023-01-19T14:25:39.481Z,98889.69
2023-01-19T14:28:28.505Z,98898.47
2023-01-19T14:30:59.314Z,98899.41
2023-01-19T14:33:48.728Z,98895.09
2023-01-19T14:36:36.342Z,98898.56
2023-01-19T14:39:18.223Z,98914.94
2023-01-19T14:41:49.962Z,98899.50
2023-01-19T14:44:21.162Z,98905.63
2023-01-19T14:46:51.026Z,98896.13
2023-01-19T14:49:26.425Z,98897.69
2023-01-19T14:51:56.252Z,98889.94
2023-01-19T14:54:35.121Z,98904.75
2023-01-19T14:57:04.213Z,98902.34
2023-01-19T14:59:33.859Z,98905.06
2023-01-19T15:02:04.995Z,98909.47
2023-01-19T15:04:33.795Z,98911.13
2023-01-19T15:07:02.275Z,98915.41
2023-01-19T15:09:32.844Z,98917.19
2023-01-19T15:12:02.711Z,98912.13
2023-01-19T15:14:31.871Z,98907.94
2023-01-19T15:17:01.114Z,98910.66
2023-01-19T15:19:29.739Z,98909.03
2023-01-19T15:21:58.140Z,98911.69
2023-01-19T15:24:26.622Z,98901.41
2023-01-19T15:27:01.699Z,98910.94
2023-01-19T15:29:32.238Z,98908.38
2023-01-19T15:32:00.806Z,98910.06
2023-01-19T15:34:29.308Z,98916.09
2023-01-19T15:36:58.098Z,98917.84
2023-01-19T15:39:26.596Z,98916.19
2023-01-19T15:41:56.379Z,98910.16
2023-01-19T15:44:24.763Z,98917.13
2023-01-19T15:46:54.753Z,98920.66
2023-01-19T15:49:23.735Z,98924.19
2023-01-19T15:51:52.269Z,98930.25
2023-01-19T15:54:21.024Z,98935.53
2023-01-19T15:56:51.062Z,98938.16
2023-01-19T15:59:21.334Z,98940.84
2023-01-19T16:01:51.022Z,98943.56
2023-01-19T16:04:19.697Z,98947.97
2023-01-19T16:06:50.113Z,98945.47
2023-01-19T16:09:20.250Z,98947.28
2023-01-19T16:11:48.779Z,98941.38
2023-01-19T16:14:17.624Z,98948.31
2023-01-19T16:16:47.934Z,98944.94
2023-01-19T16:19:16.955Z,98945.03
2023-01-19T16:21:45.480Z,98932.13
2023-01-19T16:24:14.053Z,98940.84
2023-01-19T16:26:42.600Z,98934.88
2023-01-19T16:29:11.558Z,98928.00
2023-01-19T16:31:41.113Z,98924.59
2023-01-19T16:34:11.346Z,98935.03
2023-01-19T16:36:42.046Z,98934.28
2023-01-19T16:39:14.751Z,98925.63
2023-01-19T16:41:44.013Z,98937.69
2023-01-19T16:44:13.983Z,98929.22
2023-01-19T16:46:44.483Z,98930.16
2023-01-19T16:49:16.526Z,98930.16
2023-01-19T16:51:45.903Z,98925.06
2023-01-19T16:54:18.725Z,98925.13
2023-01-19T16:56:51.038Z,98926.94
2023-01-19T16:59:21.219Z,98928.78
2023-01-19T17:01:53.144Z,98922.06
2023-01-19T17:04:24.230Z,98922.09
2023-01-19T17:06:52.765Z,98925.59
2023-01-19T17:09:21.481Z,98931.63
2023-01-19T17:11:50.369Z,98927.31
2023-01-19T17:14:21.162Z,98935.16
2023-01-19T17:16:50.119Z,98936.84
2023-01-19T17:19:22.270Z,98938.53
2023-01-19T17:21:55.459Z,98930.81
2023-01-19T17:24:27.850Z,98937.78
2023-01-19T17:26:56.274Z,98933.44
2023-01-19T17:29:25.026Z,98929.13
2023-01-19T17:31:53.609Z,98930.91
2023-01-19T17:34:22.008Z,98928.25
2023-01-19T17:36:53.264Z,98930.81
2023-01-19T17:39:21.934Z,98932.50
2023-01-19T17:41:50.448Z,98927.31
2023-01-19T17:55:41.518Z,98938.09
2023-01-19T17:58:50.026Z,98939.75
2023-01-19T18:01:21.516Z,98941.50
2023-01-19T18:07:39.398Z,98942.34
2023-01-19T18:10:11.593Z,98940.63
2023-01-19T18:12:41.879Z,98943.25
2023-01-19T18:15:16.750Z,98943.25
2023-01-19T18:17:46.627Z,98943.22
2023-01-19T18:20:17.037Z,98943.19
2023-01-19T18:22:46.298Z,98937.16
2023-01-19T18:25:15.922Z,98941.50
2023-01-19T18:27:48.496Z,98938.94
2023-01-19T18:30:21.270Z,98939.88
2023-01-19T18:32:54.100Z,98947.59
2023-01-19T18:35:23.287Z,98944.84
2023-01-19T18:37:54.152Z,98949.03
2023-01-19T18:44:22.292Z,98949.84
2023-01-19T18:46:52.766Z,98942.28
2023-01-19T18:49:40.097Z,98944.88
2023-01-19T18:56:04.502Z,98941.63
2023-01-19T18:58:37.802Z,98945.88
2023-01-19T19:01:23.085Z,98956.19
2023-01-19T19:03:55.695Z,98955.38
2023-01-19T19:06:28.967Z,98961.34
2023-01-19T19:08:59.531Z,98960.53
2023-01-19T19:11:29.747Z,98959.69
2023-01-19T19:14:03.570Z,98959.69
2023-01-19T19:17:01.984Z,98962.38
2023-01-19T19:19:33.340Z,98966.59
2023-01-19T19:22:04.539Z,98969.19
2023-01-19T19:24:35.659Z,98973.44
2023-01-19T19:27:04.627Z,98966.47
2023-01-19T19:29:37.790Z,98974.97
2023-01-19T19:32:09.970Z,98972.50
2023-01-19T19:34:39.299Z,98973.31
2023-01-19T19:37:10.029Z,98975.09
2023-01-19T19:39:38.617Z,98976.84
2023-01-19T19:42:07.335Z,98976.84
2023-01-19T19:44:39.230Z,98974.25
2023-01-19T19:47:15.166Z,98978.53
2023-01-19T19:49:44.209Z,98980.28
2023-01-19T19:52:13.042Z,98981.97
2023-01-19T19:54:42.070Z,98981.06
2023-01-19T19:57:10.993Z,98983.75
2023-01-19T19:59:56.462Z,98985.47
2023-01-19T20:02:33.127Z,98987.16
2023-01-19T20:05:03.739Z,98989.75
2023-01-19T20:07:32.940Z,98986.38
2023-01-19T20:10:02.857Z,98988.97
2023-01-19T20:12:33.610Z,98994.91
2023-01-19T20:15:02.627Z,99008.72
2023-01-19T20:17:45.635Z,99000.06
2023-01-19T20:20:15.219Z,99000.97
2023-01-19T20:22:44.177Z,99009.50
2023-01-19T20:25:13.137Z,99011.31
2023-01-19T20:27:43.187Z,99020.72
2023-01-19T20:30:16.432Z,99025.91
2023-01-19T20:32:46.495Z,99027.47
2023-01-19T20:35:16.854Z,99033.44
2023-01-19T20:37:46.281Z,99030.84
2023-01-19T20:40:19.501Z,99032.66
2023-01-19T20:42:48.376Z,99037.88
2023-01-19T20:45:21.467Z,99043.91
2023-01-19T20:47:52.737Z,99052.63
2023-01-19T20:50:34.099Z,99059.53
2023-01-19T20:53:03.340Z,99063.81
2023-01-19T20:55:35.237Z,99068.78
2023-01-19T20:58:04.993Z,99068.09
2023-01-19T21:00:37.819Z,99062.06
2023-01-19T21:03:12.357Z,99060.38
2023-01-19T21:05:41.998Z,99068.13
2023-01-19T21:08:10.952Z,99063.91
2023-01-19T21:10:46.057Z,99062.22
2023-01-19T21:13:15.715Z,99077.75
2023-01-19T21:15:44.447Z,99077.88
2023-01-19T21:18:16.791Z,99084.72
2023-01-19T21:20:46.141Z,99090.66
2023-01-19T21:23:15.025Z,99088.91
2023-01-19T21:25:51.048Z,99098.38
2023-01-19T21:28:20.379Z,99100.09
2023-01-19T21:30:49.431Z,99100.06
2023-01-19T21:33:21.174Z,99107.75
2023-01-19T21:35:54.710Z,99112.09
2023-01-19T21:38:25.458Z,99112.97
2023-01-19T21:40:57.622Z,99111.28
2023-01-19T21:43:26.998Z,99108.66
2023-01-19T21:45:56.338Z,99109.47
2023-01-19T21:48:31.825Z,99104.31
2023-01-19T21:51:00.444Z,99106.94
2023-01-19T21:53:29.442Z,99112.09
2023-01-19T21:55:58.848Z,99108.69
2023-01-19T21:58:28.438Z,99110.41
2023-01-19T22:01:04.015Z,99123.28
2023-01-19T22:03:35.012Z,99129.31
2023-01-19T22:06:05.519Z,99125.91
2023-01-19T22:08:34.613Z,99132.75
2023-01-19T22:11:10.942Z,99135.34
2023-01-19T22:13:42.401Z,99132.84
2023-01-19T22:16:12.825Z,99136.31
2023-01-19T22:18:47.767Z,99138.88
2023-01-19T22:21:18.666Z,99136.31
2023-01-19T22:23:50.789Z,99144.94
2023-01-19T22:26:20.369Z,99152.66
2023-01-19T22:28:49.752Z,99152.66
2023-01-19T22:31:20.201Z,99155.22
2023-01-19T22:33:57.387Z,99156.00
2023-01-19T22:36:27.982Z,99153.50
2023-01-19T22:38:58.456Z,99153.50
2023-01-19T22:41:30.865Z,99157.78
2023-01-19T22:44:02.004Z,99162.06
2023-01-19T22:46:39.585Z,99170.72
2023-01-19T22:49:12.458Z,99168.94
2023-01-19T22:51:59.806Z,99181.84
2023-01-19T22:54:30.131Z,99174.97
2023-01-19T22:57:04.308Z,99176.69
2023-01-19T22:59:44.010Z,99184.41
2023-01-19T23:02:13.222Z,99192.16
2023-01-19T23:04:43.268Z,99196.47
2023-01-19T23:07:12.205Z,99202.59
2023-01-19T23:09:40.816Z,99204.34
2023-01-19T23:12:11.588Z,99211.25
2023-01-19T23:14:41.783Z,99212.09
2023-01-19T23:17:11.404Z,99218.09
2023-01-19T23:19:40.592Z,99221.50
2023-01-19T23:22:10.693Z,99222.38
2023-01-19T23:24:39.181Z,99219.81
2023-01-19T23:27:07.811Z,99224.97
2023-01-19T23:29:36.424Z,99229.28
2023-01-19T23:32:05.241Z,99227.59
2023-01-19T23:34:34.069Z,99232.84
2023-01-19T23:37:04.969Z,99229.41
2023-01-19T23:39:36.175Z,99225.16
2023-01-19T23:42:05.428Z,99218.31
2023-01-19T23:44:36.440Z,99231.19
2023-01-19T23:47:04.932Z,99231.19
2023-01-19T23:49:33.642Z,99232.03
2023-01-19T23:52:03.755Z,99242.38
2023-01-19T23:54:34.927Z,99239.81
2023-01-19T23:57:06.030Z,99249.28
2023-01-19T23:59:36.411Z,99258.69
